sensor_id;sensor_type;location;lat;lon;timestamp;P1;durP1;ratioP1;P2;durP2;ratioP2
12302;SDS011;6214;48.012;7.862;2022-11-13T00:01:08;25.70;;;7.60;;
12302;SDS011;6214;48.012;7.862;2022-11-13T00:03:45;18.85;;;6.85;;
12302;SDS011;6214;48.012;7.862;2022-11-13T00:06:12;20.23;;;7.38;;
12302;SDS011;6214;48.012;7.862;2022-11-13T00:08:40;21.50;;;6.80;;
12302;SDS011;6214;48.012;7.862;2022-11-13T00:11:08;20.50;;;7.00;;
12302;SDS011;6214;48.012;7.862;2022-11-13T00:13:37;20.90;;;7.00;;
12302;SDS011;6214;48.012;7.862;2022-11-13T00:16:05;15.93;;;6.45;;
12302;SDS011;6214;48.012;7.862;2022-11-13T00:18:35;19.43;;;6.30;;
12302;SDS011;6214;48.012;7.862;2022-11-13T00:21:10;18.27;;;6.13;;
12302;SDS011;6214;48.012;7.862;2022-11-13T00:23:40;17.52;;;6.00;;
12302;SDS011;6214;48.012;7.862;2022-11-13T00:26:11;19.77;;;6.22;;
12302;SDS011;6214;48.012;7.862;2022-11-13T00:28:40;14.90;;;5.50;;
12302;SDS011;6214;48.012;7.862;2022-11-13T00:31:08;14.15;;;5.40;;
12302;SDS011;6214;48.012;7.862;2022-11-13T00:33:35;14.87;;;5.40;;
12302;SDS011;6214;48.012;7.862;2022-11-13T00:36:23;15.70;;;4.80;;
12302;SDS011;6214;48.012;7.862;2022-11-13T00:38:52;18.85;;;5.20;;
12302;SDS011;6214;48.012;7.862;2022-11-13T00:41:20;22.10;;;4.80;;
12302;SDS011;6214;48.012;7.862;2022-11-13T00:43:48;15.40;;;4.73;;
12302;SDS011;6214;48.012;7.862;2022-11-13T00:46:15;17.60;;;5.50;;
12302;SDS011;6214;48.012;7.862;2022-11-13T00:48:42;15.85;;;4.40;;
12302;SDS011;6214;48.012;7.862;2022-11-13T00:51:08;15.25;;;4.32;;
12302;SDS011;6214;48.012;7.862;2022-11-13T00:53:35;16.33;;;4.80;;
12302;SDS011;6214;48.012;7.862;2022-11-13T00:56:02;15.60;;;4.97;;
12302;SDS011;6214;48.012;7.862;2022-11-13T00:58:29;17.13;;;4.88;;
12302;SDS011;6214;48.012;7.862;2022-11-13T01:01:02;20.27;;;5.07;;
12302;SDS011;6214;48.012;7.862;2022-11-13T01:03:32;15.00;;;4.85;;
12302;SDS011;6214;48.012;7.862;2022-11-13T01:05:58;13.80;;;4.75;;
12302;SDS011;6214;48.012;7.862;2022-11-13T01:08:25;17.30;;;4.82;;
12302;SDS011;6214;48.012;7.862;2022-11-13T01:10:53;15.73;;;5.00;;
12302;SDS011;6214;48.012;7.862;2022-11-13T01:13:19;14.60;;;4.90;;
12302;SDS011;6214;48.012;7.862;2022-11-13T01:15:46;13.52;;;4.57;;
12302;SDS011;6214;48.012;7.862;2022-11-13T01:18:13;13.50;;;4.40;;
12302;SDS011;6214;48.012;7.862;2022-11-13T01:20:40;14.13;;;5.00;;
12302;SDS011;6214;48.012;7.862;2022-11-13T01:23:07;15.00;;;4.55;;
12302;SDS011;6214;48.012;7.862;2022-11-13T01:25:34;14.05;;;4.30;;
12302;SDS011;6214;48.012;7.862;2022-11-13T01:28:01;13.15;;;4.10;;
12302;SDS011;6214;48.012;7.862;2022-11-13T01:30:28;13.05;;;4.30;;
12302;SDS011;6214;48.012;7.862;2022-11-13T01:32:55;12.70;;;4.07;;
12302;SDS011;6214;48.012;7.862;2022-11-13T01:35:22;12.68;;;3.90;;
12302;SDS011;6214;48.012;7.862;2022-11-13T01:37:48;13.33;;;4.20;;
12302;SDS011;6214;48.012;7.862;2022-11-13T01:40:15;13.10;;;4.20;;
12302;SDS011;6214;48.012;7.862;2022-11-13T01:42:42;13.40;;;4.65;;
12302;SDS011;6214;48.012;7.862;2022-11-13T01:48:35;13.20;;;4.50;;
12302;SDS011;6214;48.012;7.862;2022-11-13T01:51:12;13.23;;;4.50;;
12302;SDS011;6214;48.012;7.862;2022-11-13T01:53:49;13.30;;;4.40;;
12302;SDS011;6214;48.012;7.862;2022-11-13T01:56:17;13.40;;;4.57;;
12302;SDS011;6214;48.012;7.862;2022-11-13T01:58:46;13.13;;;4.15;;
12302;SDS011;6214;48.012;7.862;2022-11-13T02:01:20;13.20;;;4.32;;
12302;SDS011;6214;48.012;7.862;2022-11-13T02:03:47;12.80;;;4.20;;
12302;SDS011;6214;48.012;7.862;2022-11-13T02:06:13;13.27;;;4.50;;
12302;SDS011;6214;48.012;7.862;2022-11-13T02:08:41;14.80;;;4.20;;
12302;SDS011;6214;48.012;7.862;2022-11-13T02:11:09;12.90;;;3.92;;
12302;SDS011;6214;48.012;7.862;2022-11-13T02:13:36;13.20;;;4.10;;
12302;SDS011;6214;48.012;7.862;2022-11-13T02:16:05;13.88;;;4.90;;
12302;SDS011;6214;48.012;7.862;2022-11-13T02:18:34;14.33;;;4.43;;
12302;SDS011;6214;48.012;7.862;2022-11-13T02:26:45;14.20;;;4.40;;
12302;SDS011;6214;48.012;7.862;2022-11-13T02:29:13;13.35;;;4.60;;
12302;SDS011;6214;48.012;7.862;2022-11-13T02:31:40;13.45;;;4.35;;
12302;SDS011;6214;48.012;7.862;2022-11-13T02:34:06;14.00;;;4.50;;
12302;SDS011;6214;48.012;7.862;2022-11-13T02:36:33;15.25;;;4.68;;
12302;SDS011;6214;48.012;7.862;2022-11-13T02:39:03;16.23;;;4.60;;
12302;SDS011;6214;48.012;7.862;2022-11-13T02:41:33;14.30;;;4.78;;
12302;SDS011;6214;48.012;7.862;2022-11-13T02:43:59;14.50;;;4.30;;
12302;SDS011;6214;48.012;7.862;2022-11-13T02:46:26;13.70;;;4.40;;
12302;SDS011;6214;48.012;7.862;2022-11-13T02:48:53;13.20;;;4.00;;
12302;SDS011;6214;48.012;7.862;2022-11-13T02:51:20;12.57;;;3.75;;
12302;SDS011;6214;48.012;7.862;2022-11-13T02:53:47;12.63;;;4.00;;
12302;SDS011;6214;48.012;7.862;2022-11-13T02:56:14;12.80;;;4.00;;
12302;SDS011;6214;48.012;7.862;2022-11-13T02:58:40;13.70;;;4.35;;
12302;SDS011;6214;48.012;7.862;2022-11-13T03:01:07;13.73;;;4.20;;
12302;SDS011;6214;48.012;7.862;2022-11-13T03:03:34;13.38;;;3.80;;
12302;SDS011;6214;48.012;7.862;2022-11-13T03:06:21;13.90;;;3.53;;
12302;SDS011;6214;48.012;7.862;2022-11-13T03:08:47;13.00;;;3.80;;
12302;SDS011;6214;48.012;7.862;2022-11-13T03:11:14;14.82;;;3.88;;
12302;SDS011;6214;48.012;7.862;2022-11-13T03:13:41;13.88;;;3.90;;
12302;SDS011;6214;48.012;7.862;2022-11-13T03:16:09;14.00;;;3.70;;
12302;SDS011;6214;48.012;7.862;2022-11-13T03:18:40;13.13;;;3.90;;
12302;SDS011;6214;48.012;7.862;2022-11-13T03:21:08;12.90;;;3.70;;
12302;SDS011;6214;48.012;7.862;2022-11-13T03:23:37;13.40;;;3.88;;
12302;SDS011;6214;48.012;7.862;2022-11-13T03:26:06;12.95;;;3.92;;
12302;SDS011;6214;48.012;7.862;2022-11-13T03:28:35;12.77;;;3.70;;
12302;SDS011;6214;48.012;7.862;2022-11-13T03:31:03;12.52;;;3.65;;
12302;SDS011;6214;48.012;7.862;2022-11-13T03:33:30;13.15;;;3.80;;
12302;SDS011;6214;48.012;7.862;2022-11-13T03:35:57;12.45;;;3.50;;
12302;SDS011;6214;48.012;7.862;2022-11-13T03:38:24;12.30;;;3.50;;
12302;SDS011;6214;48.012;7.862;2022-11-13T03:40:52;12.80;;;3.60;;
12302;SDS011;6214;48.012;7.862;2022-11-13T03:43:18;13.45;;;3.88;;
12302;SDS011;6214;48.012;7.862;2022-11-13T03:45:46;15.98;;;3.80;;
12302;SDS011;6214;48.012;7.862;2022-11-13T03:48:13;13.20;;;3.43;;
12302;SDS011;6214;48.012;7.862;2022-11-13T03:50:41;13.10;;;3.60;;
12302;SDS011;6214;48.012;7.862;2022-11-13T03:53:11;12.35;;;3.50;;
12302;SDS011;6214;48.012;7.862;2022-11-13T03:55:38;12.55;;;3.30;;
12302;SDS011;6214;48.012;7.862;2022-11-13T03:58:05;12.30;;;3.30;;
12302;SDS011;6214;48.012;7.862;2022-11-13T04:00:32;12.50;;;3.30;;
12302;SDS011;6214;48.012;7.862;2022-11-13T04:02:59;12.40;;;2.90;;
12302;SDS011;6214;48.012;7.862;2022-11-13T04:05:26;11.90;;;3.20;;
12302;SDS011;6214;48.012;7.862;2022-11-13T04:07:53;11.90;;;3.00;;
12302;SDS011;6214;48.012;7.862;2022-11-13T04:10:20;11.80;;;3.10;;
12302;SDS011;6214;48.012;7.862;2022-11-13T04:12:46;12.02;;;3.20;;
12302;SDS011;6214;48.012;7.862;2022-11-13T04:15:13;14.18;;;3.60;;
12302;SDS011;6214;48.012;7.862;2022-11-13T04:17:40;12.57;;;3.72;;
12302;SDS011;6214;48.012;7.862;2022-11-13T04:20:07;13.27;;;3.60;;
12302;SDS011;6214;48.012;7.862;2022-11-13T04:22:35;14.30;;;4.10;;
12302;SDS011;6214;48.012;7.862;2022-11-13T04:25:02;12.80;;;3.38;;
12302;SDS011;6214;48.012;7.862;2022-11-13T04:27:29;12.50;;;3.50;;
12302;SDS011;6214;48.012;7.862;2022-11-13T04:29:56;13.10;;;3.40;;
12302;SDS011;6214;48.012;7.862;2022-11-13T04:32:23;13.18;;;3.40;;
12302;SDS011;6214;48.012;7.862;2022-11-13T04:34:49;12.80;;;3.72;;
12302;SDS011;6214;48.012;7.862;2022-11-13T04:37:16;12.70;;;3.72;;
12302;SDS011;6214;48.012;7.862;2022-11-13T04:39:43;12.30;;;3.30;;
12302;SDS011;6214;48.012;7.862;2022-11-13T04:42:10;12.60;;;3.50;;
12302;SDS011;6214;48.012;7.862;2022-11-13T04:44:56;12.40;;;3.65;;
12302;SDS011;6214;48.012;7.862;2022-11-13T04:47:23;12.57;;;3.65;;
12302;SDS011;6214;48.012;7.862;2022-11-13T04:49:49;13.82;;;4.10;;
12302;SDS011;6214;48.012;7.862;2022-11-13T04:52:16;12.40;;;3.40;;
12302;SDS011;6214;48.012;7.862;2022-11-13T04:54:43;13.07;;;3.63;;
12302;SDS011;6214;48.012;7.862;2022-11-13T04:57:10;12.23;;;3.50;;
12302;SDS011;6214;48.012;7.862;2022-11-13T04:59:37;12.50;;;3.50;;
12302;SDS011;6214;48.012;7.862;2022-11-13T05:02:04;12.30;;;3.20;;
12302;SDS011;6214;48.012;7.862;2022-11-13T05:04:31;12.77;;;3.20;;
12302;SDS011;6214;48.012;7.862;2022-11-13T05:06:58;12.90;;;3.70;;
12302;SDS011;6214;48.012;7.862;2022-11-13T05:09:25;12.40;;;3.23;;
12302;SDS011;6214;48.012;7.862;2022-11-13T05:11:52;11.85;;;3.10;;
12302;SDS011;6214;48.012;7.862;2022-11-13T05:14:18;12.10;;;3.20;;
12302;SDS011;6214;48.012;7.862;2022-11-13T05:16:45;12.38;;;3.45;;
12302;SDS011;6214;48.012;7.862;2022-11-13T05:19:12;12.00;;;3.00;;
12302;SDS011;6214;48.012;7.862;2022-11-13T05:21:39;12.00;;;3.10;;
12302;SDS011;6214;48.012;7.862;2022-11-13T05:24:06;11.80;;;2.90;;
12302;SDS011;6214;48.012;7.862;2022-11-13T05:26:36;12.07;;;2.90;;
12302;SDS011;6214;48.012;7.862;2022-11-13T05:29:04;11.90;;;2.40;;
12302;SDS011;6214;48.012;7.862;2022-11-13T05:31:31;11.50;;;2.63;;
12302;SDS011;6214;48.012;7.862;2022-11-13T05:33:58;11.30;;;2.30;;
12302;SDS011;6214;48.012;7.862;2022-11-13T05:36:31;11.40;;;2.40;;
12302;SDS011;6214;48.012;7.862;2022-11-13T05:38:58;11.48;;;2.60;;
12302;SDS011;6214;48.012;7.862;2022-11-13T05:41:25;11.70;;;2.50;;
12302;SDS011;6214;48.012;7.862;2022-11-13T05:43:52;11.60;;;2.40;;
12302;SDS011;6214;48.012;7.862;2022-11-13T05:46:25;11.40;;;2.30;;
12302;SDS011;6214;48.012;7.862;2022-11-13T05:48:54;11.77;;;2.42;;
12302;SDS011;6214;48.012;7.862;2022-11-13T05:51:26;11.80;;;2.70;;
12302;SDS011;6214;48.012;7.862;2022-11-13T05:53:58;12.30;;;2.88;;
12302;SDS011;6214;48.012;7.862;2022-11-13T05:56:26;11.30;;;2.50;;
12302;SDS011;6214;48.012;7.862;2022-11-13T05:58:55;11.40;;;2.50;;
12302;SDS011;6214;48.012;7.862;2022-11-13T06:01:30;11.50;;;2.50;;
12302;SDS011;6214;48.012;7.862;2022-11-13T06:03:58;12.73;;;2.20;;
12302;SDS011;6214;48.012;7.862;2022-11-13T06:06:26;11.48;;;2.50;;
12302;SDS011;6214;48.012;7.862;2022-11-13T06:08:55;11.27;;;2.20;;
12302;SDS011;6214;48.012;7.862;2022-11-13T06:11:23;11.82;;;2.75;;
12302;SDS011;6214;48.012;7.862;2022-11-13T06:13:52;12.25;;;3.30;;
12302;SDS011;6214;48.012;7.862;2022-11-13T06:16:20;13.32;;;4.13;;
12302;SDS011;6214;48.012;7.862;2022-11-13T06:18:49;13.80;;;4.53;;
12302;SDS011;6214;48.012;7.862;2022-11-13T06:21:20;13.30;;;4.20;;
12302;SDS011;6214;48.012;7.862;2022-11-13T06:23:48;12.15;;;3.10;;
12302;SDS011;6214;48.012;7.862;2022-11-13T06:26:18;12.57;;;3.22;;
12302;SDS011;6214;48.012;7.862;2022-11-13T06:28:47;12.40;;;3.20;;
12302;SDS011;6214;48.012;7.862;2022-11-13T06:31:16;12.30;;;3.10;;
12302;SDS011;6214;48.012;7.862;2022-11-13T06:33:47;12.20;;;3.30;;
12302;SDS011;6214;48.012;7.862;2022-11-13T06:36:15;11.73;;;2.85;;
12302;SDS011;6214;48.012;7.862;2022-11-13T06:38:44;12.25;;;3.22;;
12302;SDS011;6214;48.012;7.862;2022-11-13T06:41:14;11.65;;;2.80;;
12302;SDS011;6214;48.012;7.862;2022-11-13T06:43:43;12.00;;;3.17;;
12302;SDS011;6214;48.012;7.862;2022-11-13T06:46:12;12.00;;;3.03;;
12302;SDS011;6214;48.012;7.862;2022-11-13T06:48:46;12.20;;;2.92;;
12302;SDS011;6214;48.012;7.862;2022-11-13T06:51:14;11.90;;;3.17;;
12302;SDS011;6214;48.012;7.862;2022-11-13T06:53:43;13.05;;;3.20;;
12302;SDS011;6214;48.012;7.862;2022-11-13T06:56:10;11.98;;;3.08;;
12302;SDS011;6214;48.012;7.862;2022-11-13T06:58:37;12.00;;;3.00;;
12302;SDS011;6214;48.012;7.862;2022-11-13T07:01:11;12.40;;;3.13;;
12302;SDS011;6214;48.012;7.862;2022-11-13T07:03:39;12.60;;;3.40;;
12302;SDS011;6214;48.012;7.862;2022-11-13T07:06:08;12.45;;;3.30;;
12302;SDS011;6214;48.012;7.862;2022-11-13T07:08:43;12.20;;;3.20;;
12302;SDS011;6214;48.012;7.862;2022-11-13T07:11:12;12.10;;;3.10;;
12302;SDS011;6214;48.012;7.862;2022-11-13T07:13:43;12.60;;;3.58;;
12302;SDS011;6214;48.012;7.862;2022-11-13T07:16:11;12.25;;;3.30;;
12302;SDS011;6214;48.012;7.862;2022-11-13T07:18:47;12.50;;;3.10;;
12302;SDS011;6214;48.012;7.862;2022-11-13T07:21:15;11.90;;;3.08;;
12302;SDS011;6214;48.012;7.862;2022-11-13T07:23:42;12.00;;;3.40;;
12302;SDS011;6214;48.012;7.862;2022-11-13T07:26:09;11.40;;;2.55;;
12302;SDS011;6214;48.012;7.862;2022-11-13T07:28:37;13.85;;;3.00;;
12302;SDS011;6214;48.012;7.862;2022-11-13T07:31:04;12.15;;;2.60;;
12302;SDS011;6214;48.012;7.862;2022-11-13T07:33:32;11.70;;;2.90;;
12302;SDS011;6214;48.012;7.862;2022-11-13T07:35:59;11.70;;;2.50;;
12302;SDS011;6214;48.012;7.862;2022-11-13T07:38:25;11.70;;;2.80;;
12302;SDS011;6214;48.012;7.862;2022-11-13T07:40:53;12.90;;;3.30;;
12302;SDS011;6214;48.012;7.862;2022-11-13T07:43:20;12.18;;;2.75;;
12302;SDS011;6214;48.012;7.862;2022-11-13T07:45:46;11.85;;;3.00;;
12302;SDS011;6214;48.012;7.862;2022-11-13T07:48:20;12.38;;;3.50;;
12302;SDS011;6214;48.012;7.862;2022-11-13T07:50:48;11.80;;;2.90;;
12302;SDS011;6214;48.012;7.862;2022-11-13T07:53:15;11.80;;;2.80;;
12302;SDS011;6214;48.012;7.862;2022-11-13T07:55:43;12.70;;;3.20;;
12302;SDS011;6214;48.012;7.862;2022-11-13T07:58:10;12.30;;;3.30;;
12302;SDS011;6214;48.012;7.862;2022-11-13T08:00:37;11.80;;;3.00;;
12302;SDS011;6214;48.012;7.862;2022-11-13T08:03:05;11.80;;;2.90;;
12302;SDS011;6214;48.012;7.862;2022-11-13T08:05:40;12.70;;;3.00;;
12302;SDS011;6214;48.012;7.862;2022-11-13T08:08:10;12.00;;;3.07;;
12302;SDS011;6214;48.012;7.862;2022-11-13T08:10:38;11.95;;;3.10;;
12302;SDS011;6214;48.012;7.862;2022-11-13T08:13:06;12.10;;;3.20;;
12302;SDS011;6214;48.012;7.862;2022-11-13T08:15:34;11.93;;;2.88;;
12302;SDS011;6214;48.012;7.862;2022-11-13T08:18:02;12.20;;;2.90;;
12302;SDS011;6214;48.012;7.862;2022-11-13T08:20:30;11.43;;;2.40;;
12302;SDS011;6214;48.012;7.862;2022-11-13T08:22:58;12.20;;;3.10;;
12302;SDS011;6214;48.012;7.862;2022-11-13T08:25:26;15.07;;;5.75;;
12302;SDS011;6214;48.012;7.862;2022-11-13T08:27:54;12.63;;;3.78;;
12302;SDS011;6214;48.012;7.862;2022-11-13T08:30:23;14.05;;;4.80;;
12302;SDS011;6214;48.012;7.862;2022-11-13T08:32:51;12.90;;;3.50;;
12302;SDS011;6214;48.012;7.862;2022-11-13T08:35:19;12.70;;;3.30;;
12302;SDS011;6214;48.012;7.862;2022-11-13T08:37:54;12.13;;;3.10;;
12302;SDS011;6214;48.012;7.862;2022-11-13T08:40:28;12.70;;;3.10;;
12302;SDS011;6214;48.012;7.862;2022-11-13T08:42:58;12.63;;;3.30;;
12302;SDS011;6214;48.012;7.862;2022-11-13T08:45:26;12.38;;;2.70;;
12302;SDS011;6214;48.012;7.862;2022-11-13T08:47:53;12.20;;;2.90;;
12302;SDS011;6214;48.012;7.862;2022-11-13T08:50:28;12.40;;;3.03;;
12302;SDS011;6214;48.012;7.862;2022-11-13T08:52:57;12.30;;;3.53;;
12302;SDS011;6214;48.012;7.862;2022-11-13T08:55:24;12.18;;;3.38;;
12302;SDS011;6214;48.012;7.862;2022-11-13T08:57:52;13.80;;;4.53;;
12302;SDS011;6214;48.012;7.862;2022-11-13T09:00:19;12.68;;;3.58;;
12302;SDS011;6214;48.012;7.862;2022-11-13T09:02:46;12.60;;;3.30;;
12302;SDS011;6214;48.012;7.862;2022-11-13T09:05:13;12.35;;;3.10;;
12302;SDS011;6214;48.012;7.862;2022-11-13T09:07:40;12.10;;;3.38;;
12302;SDS011;6214;48.012;7.862;2022-11-13T09:10:06;12.20;;;3.30;;
12302;SDS011;6214;48.012;7.862;2022-11-13T09:12:33;12.40;;;3.30;;
12302;SDS011;6214;48.012;7.862;2022-11-13T09:15:00;12.55;;;3.55;;
12302;SDS011;6214;48.012;7.862;2022-11-13T09:17:27;12.55;;;3.60;;
12302;SDS011;6214;48.012;7.862;2022-11-13T09:19:54;13.90;;;5.40;;
12302;SDS011;6214;48.012;7.862;2022-11-13T09:22:26;13.65;;;5.22;;
12302;SDS011;6214;48.012;7.862;2022-11-13T09:24:52;12.40;;;3.80;;
12302;SDS011;6214;48.012;7.862;2022-11-13T09:27:19;13.07;;;4.20;;
12302;SDS011;6214;48.012;7.862;2022-11-13T09:29:46;12.40;;;3.53;;
12302;SDS011;6214;48.012;7.862;2022-11-13T09:32:20;12.70;;;3.63;;
12302;SDS011;6214;48.012;7.862;2022-11-13T09:34:47;12.38;;;3.50;;
12302;SDS011;6214;48.012;7.862;2022-11-13T09:37:14;13.23;;;4.10;;
12302;SDS011;6214;48.012;7.862;2022-11-13T09:39:41;13.40;;;4.05;;
12302;SDS011;6214;48.012;7.862;2022-11-13T09:42:18;13.90;;;4.53;;
12302;SDS011;6214;48.012;7.862;2022-11-13T09:44:48;14.15;;;5.07;;
12302;SDS011;6214;48.012;7.862;2022-11-13T09:47:20;13.60;;;4.50;;
12302;SDS011;6214;48.012;7.862;2022-11-13T09:52:32;13.55;;;4.50;;
12302;SDS011;6214;48.012;7.862;2022-11-13T09:55:03;13.75;;;4.13;;
12302;SDS011;6214;48.012;7.862;2022-11-13T09:57:40;13.47;;;3.90;;
12302;SDS011;6214;48.012;7.862;2022-11-13T10:00:13;13.20;;;3.90;;
12302;SDS011;6214;48.012;7.862;2022-11-13T10:02:49;12.70;;;4.00;;
12302;SDS011;6214;48.012;7.862;2022-11-13T10:06:12;13.88;;;4.05;;
12302;SDS011;6214;48.012;7.862;2022-11-13T10:08:53;14.00;;;5.78;;
12302;SDS011;6214;48.012;7.862;2022-11-13T10:11:42;13.57;;;4.53;;
12302;SDS011;6214;48.012;7.862;2022-11-13T10:14:56;13.88;;;5.80;;
12302;SDS011;6214;48.012;7.862;2022-11-13T10:17:10;12.90;;;4.50;;
12302;SDS011;6214;48.012;7.862;2022-11-13T10:22:17;12.50;;;3.78;;
12302;SDS011;6214;48.012;7.862;2022-11-13T10:25:04;12.88;;;4.05;;
12302;SDS011;6214;48.012;7.862;2022-11-13T10:27:41;12.50;;;3.60;;
12302;SDS011;6214;48.012;7.862;2022-11-13T10:30:14;13.53;;;4.60;;
12302;SDS011;6214;48.012;7.862;2022-11-13T10:32:42;12.82;;;4.35;;
12302;SDS011;6214;48.012;7.862;2022-11-13T10:38:24;13.32;;;4.40;;
12302;SDS011;6214;48.012;7.862;2022-11-13T10:41:04;14.70;;;6.80;;
12302;SDS011;6214;48.012;7.862;2022-11-13T10:43:57;13.83;;;5.23;;
12302;SDS011;6214;48.012;7.862;2022-11-13T10:46:30;13.43;;;4.57;;
12302;SDS011;6214;48.012;7.862;2022-11-13T10:49:09;13.10;;;4.80;;
12302;SDS011;6214;48.012;7.862;2022-11-13T10:51:43;14.00;;;4.82;;
12302;SDS011;6214;48.012;7.862;2022-11-13T10:54:20;19.15;;;9.15;;
12302;SDS011;6214;48.012;7.862;2022-11-13T10:57:00;13.98;;;5.00;;
12302;SDS011;6214;48.012;7.862;2022-11-13T10:59:39;19.40;;;9.15;;
12302;SDS011;6214;48.012;7.862;2022-11-13T11:02:14;16.60;;;7.00;;
12302;SDS011;6214;48.012;7.862;2022-11-13T11:04:46;13.90;;;4.90;;
12302;SDS011;6214;48.012;7.862;2022-11-13T11:07:19;15.45;;;6.45;;
12302;SDS011;6214;48.012;7.862;2022-11-13T11:09:48;14.60;;;5.93;;
12302;SDS011;6214;48.012;7.862;2022-11-13T11:12:17;13.23;;;4.80;;
12302;SDS011;6214;48.012;7.862;2022-11-13T11:17:24;14.20;;;5.10;;
12302;SDS011;6214;48.012;7.862;2022-11-13T11:20:24;15.55;;;6.75;;
12302;SDS011;6214;48.012;7.862;2022-11-13T11:23:17;13.55;;;4.63;;
12302;SDS011;6214;48.012;7.862;2022-11-13T11:25:53;13.60;;;5.00;;
12302;SDS011;6214;48.012;7.862;2022-11-13T11:31:21;13.60;;;5.13;;
12302;SDS011;6214;48.012;7.862;2022-11-13T11:34:27;14.02;;;5.10;;
12302;SDS011;6214;48.012;7.862;2022-11-13T11:37:13;13.63;;;4.80;;
12302;SDS011;6214;48.012;7.862;2022-11-13T11:39:44;15.20;;;6.15;;
12302;SDS011;6214;48.012;7.862;2022-11-13T11:42:21;13.60;;;5.13;;
12302;SDS011;6214;48.012;7.862;2022-11-13T11:45:27;14.50;;;5.30;;
12302;SDS011;6214;48.012;7.862;2022-11-13T11:47:58;13.70;;;5.47;;
12302;SDS011;6214;48.012;7.862;2022-11-13T11:50:32;14.40;;;5.57;;
12302;SDS011;6214;48.012;7.862;2022-11-13T11:53:12;14.73;;;5.72;;
12302;SDS011;6214;48.012;7.862;2022-11-13T11:56:12;13.75;;;5.20;;
12302;SDS011;6214;48.012;7.862;2022-11-13T12:01:28;14.60;;;6.20;;
12302;SDS011;6214;48.012;7.862;2022-11-13T12:09:58;14.07;;;5.33;;
12302;SDS011;6214;48.012;7.862;2022-11-13T12:15:46;13.50;;;5.10;;
12302;SDS011;6214;48.012;7.862;2022-11-13T12:21:01;14.13;;;5.30;;
12302;SDS011;6214;48.012;7.862;2022-11-13T12:23:42;13.35;;;4.88;;
12302;SDS011;6214;48.012;7.862;2022-11-13T12:29:06;15.02;;;6.32;;
12302;SDS011;6214;48.012;7.862;2022-11-13T12:34:34;14.00;;;5.60;;
12302;SDS011;6214;48.012;7.862;2022-11-13T12:37:14;14.00;;;5.60;;
12302;SDS011;6214;48.012;7.862;2022-11-13T12:39:55;14.17;;;5.10;;
12302;SDS011;6214;48.012;7.862;2022-11-13T12:47:45;15.40;;;6.88;;
12302;SDS011;6214;48.012;7.862;2022-11-13T12:50:23;15.30;;;6.30;;
12302;SDS011;6214;48.012;7.862;2022-11-13T12:52:59;17.33;;;7.83;;
12302;SDS011;6214;48.012;7.862;2022-11-13T12:55:32;14.50;;;5.80;;
12302;SDS011;6214;48.012;7.862;2022-11-13T12:58:50;14.60;;;6.38;;
12302;SDS011;6214;48.012;7.862;2022-11-13T13:09:17;13.50;;;5.05;;
12302;SDS011;6214;48.012;7.862;2022-11-13T13:12:06;13.27;;;4.60;;
12302;SDS011;6214;48.012;7.862;2022-11-13T13:17:29;13.30;;;4.30;;
12302;SDS011;6214;48.012;7.862;2022-11-13T13:19:57;12.18;;;3.50;;
12302;SDS011;6214;48.012;7.862;2022-11-13T13:22:28;12.35;;;3.72;;
12302;SDS011;6214;48.012;7.862;2022-11-13T13:25:06;12.60;;;4.10;;
12302;SDS011;6214;48.012;7.862;2022-11-13T13:28:22;12.70;;;4.20;;
12302;SDS011;6214;48.012;7.862;2022-11-13T13:39:18;12.90;;;4.30;;
12302;SDS011;6214;48.012;7.862;2022-11-13T13:42:34;12.68;;;3.80;;
12302;SDS011;6214;48.012;7.862;2022-11-13T13:48:07;12.82;;;3.70;;
12302;SDS011;6214;48.012;7.862;2022-11-13T13:50:45;12.50;;;3.80;;
12302;SDS011;6214;48.012;7.862;2022-11-13T13:53:16;12.50;;;3.70;;
12302;SDS011;6214;48.012;7.862;2022-11-13T13:55:47;13.05;;;3.97;;
12302;SDS011;6214;48.012;7.862;2022-11-13T13:58:20;12.68;;;4.07;;
12302;SDS011;6214;48.012;7.862;2022-11-13T14:00:55;12.60;;;4.00;;
12302;SDS011;6214;48.012;7.862;2022-11-13T14:03:43;13.38;;;4.80;;
12302;SDS011;6214;48.012;7.862;2022-11-13T14:06:17;13.30;;;4.30;;
12302;SDS011;6214;48.012;7.862;2022-11-13T14:08:46;12.45;;;3.67;;
12302;SDS011;6214;48.012;7.862;2022-11-13T14:11:23;12.95;;;3.85;;
12302;SDS011;6214;48.012;7.862;2022-11-13T14:13:52;12.55;;;3.75;;
12302;SDS011;6214;48.012;7.862;2022-11-13T14:16:22;13.73;;;4.70;;
12302;SDS011;6214;48.012;7.862;2022-11-13T14:18:50;14.00;;;5.00;;
12302;SDS011;6214;48.012;7.862;2022-11-13T14:21:30;13.20;;;3.90;;
12302;SDS011;6214;48.012;7.862;2022-11-13T14:23:59;12.82;;;4.20;;
12302;SDS011;6214;48.012;7.862;2022-11-13T14:26:28;13.20;;;4.10;;
12302;SDS011;6214;48.012;7.862;2022-11-13T14:28:58;13.00;;;4.30;;
12302;SDS011;6214;48.012;7.862;2022-11-13T14:31:30;12.40;;;3.80;;
12302;SDS011;6214;48.012;7.862;2022-11-13T14:34:12;13.15;;;4.30;;
12302;SDS011;6214;48.012;7.862;2022-11-13T14:36:43;12.80;;;4.10;;
12302;SDS011;6214;48.012;7.862;2022-11-13T14:39:28;13.50;;;4.60;;
12302;SDS011;6214;48.012;7.862;2022-11-13T14:42:01;12.83;;;4.13;;
12302;SDS011;6214;48.012;7.862;2022-11-13T14:44:31;13.73;;;4.88;;
12302;SDS011;6214;48.012;7.862;2022-11-13T14:47:01;13.75;;;5.10;;
12302;SDS011;6214;48.012;7.862;2022-11-13T14:49:34;13.90;;;5.40;;
12302;SDS011;6214;48.012;7.862;2022-11-13T14:52:04;13.90;;;5.10;;
12302;SDS011;6214;48.012;7.862;2022-11-13T14:54:33;14.20;;;5.40;;
12302;SDS011;6214;48.012;7.862;2022-11-13T14:57:21;13.60;;;4.80;;
12302;SDS011;6214;48.012;7.862;2022-11-13T14:59:50;13.50;;;4.60;;
12302;SDS011;6214;48.012;7.862;2022-11-13T15:02:17;13.80;;;4.70;;
12302;SDS011;6214;48.012;7.862;2022-11-13T15:04:48;13.38;;;4.72;;
12302;SDS011;6214;48.012;7.862;2022-11-13T15:07:28;13.60;;;4.78;;
12302;SDS011;6214;48.012;7.862;2022-11-13T15:10:01;14.20;;;5.00;;
12302;SDS011;6214;48.012;7.862;2022-11-13T15:12:27;13.95;;;5.20;;
12302;SDS011;6214;48.012;7.862;2022-11-13T15:14:56;15.00;;;5.40;;
12302;SDS011;6214;48.012;7.862;2022-11-13T15:17:26;13.60;;;4.80;;
12302;SDS011;6214;48.012;7.862;2022-11-13T15:19:52;13.45;;;4.70;;
12302;SDS011;6214;48.012;7.862;2022-11-13T15:22:22;13.50;;;4.88;;
12302;SDS011;6214;48.012;7.862;2022-11-13T15:24:54;15.18;;;6.03;;
12302;SDS011;6214;48.012;7.862;2022-11-13T15:27:20;14.77;;;5.50;;
12302;SDS011;6214;48.012;7.862;2022-11-13T15:29:47;15.10;;;5.55;;
12302;SDS011;6214;48.012;7.862;2022-11-13T15:32:14;14.50;;;5.28;;
12302;SDS011;6214;48.012;7.862;2022-11-13T15:34:41;13.20;;;4.70;;
12302;SDS011;6214;48.012;7.862;2022-11-13T15:37:12;13.20;;;4.60;;
12302;SDS011;6214;48.012;7.862;2022-11-13T15:39:41;13.20;;;4.38;;
12302;SDS011;6214;48.012;7.862;2022-11-13T15:42:15;13.00;;;4.30;;
12302;SDS011;6214;48.012;7.862;2022-11-13T15:44:43;13.30;;;4.30;;
12302;SDS011;6214;48.012;7.862;2022-11-13T15:47:18;22.03;;;12.90;;
12302;SDS011;6214;48.012;7.862;2022-11-13T15:49:56;13.25;;;4.68;;
12302;SDS011;6214;48.012;7.862;2022-11-13T15:52:44;13.82;;;5.10;;
12302;SDS011;6214;48.012;7.862;2022-11-13T15:55:18;14.48;;;5.20;;
12302;SDS011;6214;48.012;7.862;2022-11-13T15:57:51;13.90;;;4.90;;
12302;SDS011;6214;48.012;7.862;2022-11-13T16:00:23;16.83;;;8.00;;
12302;SDS011;6214;48.012;7.862;2022-11-13T16:02:52;16.52;;;7.68;;
12302;SDS011;6214;48.012;7.862;2022-11-13T16:05:22;15.07;;;5.30;;
12302;SDS011;6214;48.012;7.862;2022-11-13T16:07:54;14.77;;;5.93;;
12302;SDS011;6214;48.012;7.862;2022-11-13T16:10:22;14.73;;;5.45;;
12302;SDS011;6214;48.012;7.862;2022-11-13T16:12:52;16.15;;;6.60;;
12302;SDS011;6214;48.012;7.862;2022-11-13T16:15:21;15.33;;;6.50;;
12302;SDS011;6214;48.012;7.862;2022-11-13T16:17:52;13.90;;;5.27;;
12302;SDS011;6214;48.012;7.862;2022-11-13T16:20:23;13.95;;;5.00;;
12302;SDS011;6214;48.012;7.862;2022-11-13T16:22:50;15.10;;;6.50;;